Time;durP1;ratioP1;P1;durP2;ratioP2;P2;SDS_P1;SDS_P2;PMS_P1;PMS_P2;Temp;Humidity;BMP_temperature;BMP_pressure;BME280_temperature;BME280_humidity;BME280_pressure;Samples;Min_cycle;Max_cycle;Signal;HPM_P1;HPM_P2
2022/08/10 00:00:52;;;;;;;3.97;3.57;;;19.20;1.00;;;;;;5072186;28;20447;-82
2022/08/10 00:03:22;;;;;;;3.60;3.30;;;19.20;1.00;;;;;;5065936;28;20836;-81
2022/08/10 00:05:49;;;;;;;4.57;4.17;;;19.10;1.00;;;;;;5050385;28;20502;-79
2022/08/10 00:08:20;;;;;;;5.17;3.50;;;19.00;1.00;;;;;;5071800;28;20468;-81
2022/08/10 00:10:47;;;;;;;4.27;2.90;;;19.00;1.00;;;;;;5068001;28;20431;-82
2022/08/10 00:13:28;;;;;;;3.80;3.40;;;19.00;1.00;;;;;;5077264;28;20423;-81
2022/08/10 00:15:59;;;;;;;3.60;3.30;;;19.00;1.00;;;;;;5070556;28;20467;-80
2022/08/10 00:18:27;;;;;;;4.40;4.00;;;19.00;1.00;;;;;;5057291;28;22479;-81
2022/08/10 00:20:59;;;;;;;3.43;3.13;;;19.00;1.00;;;;;;5065177;28;20467;-79
2022/08/10 00:23:26;;;;;;;6.37;3.30;;;18.90;1.00;;;;;;5065634;28;20476;-80
2022/08/10 00:25:58;;;;;;;4.83;3.10;;;18.80;1.00;;;;;;5067689;28;20488;-80
2022/08/10 00:28:25;;;;;;;3.53;3.17;;;18.80;1.00;;;;;;5057781;28;20491;-81
2022/08/10 00:30:58;;;;;;;5.20;3.70;;;18.70;1.00;;;;;;5064985;28;21320;-82
2022/08/10 00:33:29;;;;;;;3.20;2.60;;;18.70;1.00;;;;;;5070726;28;20413;-80
2022/08/10 00:35:59;;;;;;;5.80;3.50;;;18.70;1.00;;;;;;5070119;28;20444;-82
2022/08/10 00:38:30;;;;;;;7.27;4.10;;;18.70;1.00;;;;;;5067339;28;20575;-82
2022/08/10 00:41:00;;;;;;;3.43;3.13;;;18.60;1.00;;;;;;5042592;28;20480;-81
2022/08/10 00:43:57;;;;;;;4.87;3.33;;;18.70;1.00;;;;;;5048212;28;20439;-81
2022/08/10 00:46:29;;;;;;;4.23;3.67;;;18.60;1.00;;;;;;5062819;28;20446;-81
2022/08/10 00:49:00;;;;;;;4.10;3.33;;;18.60;1.00;;;;;;5062482;28;21212;-80
2022/08/10 00:51:29;;;;;;;5.03;3.80;;;18.50;1.00;;;;;;5064559;28;21361;-82
2022/08/10 00:53:56;;;;;;;4.40;3.50;;;18.50;1.00;;;;;;5070427;28;20449;-82
2022/08/10 00:56:23;;;;;;;3.53;3.23;;;18.40;1.00;;;;;;5068990;28;20476;-83
2022/08/10 00:58:53;;;;;;;4.57;4.17;;;18.40;1.00;;;;;;5066129;28;20462;-83
2022/08/10 01:01:20;;;;;;;4.47;3.70;;;18.40;1.00;;;;;;5057213;28;20925;-81
2022/08/10 01:03:50;;;;;;;4.30;3.20;;;18.30;1.00;;;;;;5065687;28;20454;-82
2022/08/10 01:06:28;;;;;;;6.00;4.40;;;18.30;1.00;;;;;;5085797;28;20526;-81
2022/08/10 01:09:08;;;;;;;4.47;3.53;;;18.30;1.00;;;;;;5067288;28;20451;-82
2022/08/10 01:11:48;;;;;;;3.97;3.67;;;18.30;1.00;;;;;;5085289;28;20491;-82
2022/08/10 01:14:35;;;;;;;5.10;4.27;;;18.20;1.00;;;;;;5086352;28;20423;-81
2022/08/10 01:17:11;;;;;;;4.13;3.80;;;18.10;1.00;;;;;;5075773;28;20479;-81
2022/08/10 01:19:57;;;;;;;5.67;4.17;;;18.10;1.00;;;;;;5078695;28;20469;-80
2022/08/10 01:23:08;;;;;;;6.50;3.77;;;18.10;1.00;;;;;;5083086;28;20443;-81
2022/08/10 01:25:50;;;;;;;4.40;4.00;;;18.10;1.00;;;;;;5053175;28;20564;-83
2022/08/10 01:28:30;;;;;;;4.43;4.03;;;18.00;1.00;;;;;;5088412;28;20419;-82
2022/08/10 01:31:02;;;;;;;4.30;3.83;;;18.00;1.00;;;;;;5087258;28;20428;-82
2022/08/10 01:33:37;;;;;;;7.10;4.00;;;18.00;1.00;;;;;;5085882;28;20466;-81
2022/08/10 01:36:09;;;;;;;5.20;4.70;;;18.00;1.00;;;;;;5087387;27;20462;-81
2022/08/10 01:38:42;;;;;;;5.17;3.90;;;18.00;1.00;;;;;;5080755;28;20439;-83
2022/08/10 01:41:19;;;;;;;4.33;3.83;;;18.00;1.00;;;;;;5089867;28;20454;-80
2022/08/10 01:43:50;;;;;;;4.67;3.90;;;17.90;1.00;;;;;;5088308;27;20419;-82
2022/08/10 01:46:22;;;;;;;5.50;3.77;;;17.90;1.00;;;;;;5085896;28;20467;-81
2022/08/10 01:48:55;;;;;;;7.47;4.50;;;17.90;1.00;;;;;;5085507;28;20419;-82
2022/08/10 01:51:29;;;;;;;11.23;4.83;;;17.90;1.00;;;;;;5085420;28;20448;-82
2022/08/10 01:54:01;;;;;;;7.47;4.80;;;17.80;1.00;;;;;;5092476;28;20506;-83
2022/08/10 01:56:32;;;;;;;4.60;4.20;;;17.80;1.00;;;;;;5085077;28;20426;-82
2022/08/10 01:59:09;;;;;;;5.40;4.60;;;17.80;1.00;;;;;;5084389;28;20489;-82
2022/08/10 02:01:46;;;;;;;5.40;4.90;;;17.80;1.00;;;;;;5087374;28;20473;-82
2022/08/10 02:04:20;;;;;;;5.80;4.40;;;17.80;1.00;;;;;;5087712;27;20532;-83
2022/08/10 02:06:49;;;;;;;6.43;4.43;;;17.80;1.00;;;;;;5087178;27;20433;-80
2022/08/10 02:09:22;;;;;;;6.20;5.30;;;17.70;1.00;;;;;;5084813;28;20436;-82
2022/08/10 02:11:50;;;;;;;5.60;4.70;;;17.70;1.00;;;;;;5081395;28;20955;-81
2022/08/10 02:14:21;;;;;;;8.67;4.73;;;17.70;1.00;;;;;;5084514;28;20428;-81
2022/08/10 02:16:51;;;;;;;6.70;4.60;;;17.70;1.00;;;;;;5086640;28;20492;-81
2022/08/10 02:19:23;;;;;;;6.20;4.60;;;17.70;1.00;;;;;;5090785;28;20498;-81
2022/08/10 02:21:52;;;;;;;4.80;4.27;;;17.70;1.00;;;;;;5089201;28;20462;-83
2022/08/10 02:24:22;;;;;;;8.73;7.60;;;17.70;1.00;;;;;;5091867;28;20425;-80
2022/08/10 02:26:50;;;;;;;6.03;5.23;;;17.70;1.00;;;;;;5087188;28;20460;-82
2022/08/10 02:29:21;;;;;;;5.20;4.63;;;17.70;1.00;;;;;;5089815;28;20650;-82
2022/08/10 02:31:50;;;;;;;6.87;4.77;;;17.70;1.00;;;;;;5089337;28;20944;-80
2022/08/10 02:34:21;;;;;;;9.93;5.93;;;17.60;1.00;;;;;;5088905;27;20557;-81
2022/08/10 02:36:51;;;;;;;8.37;5.80;;;17.60;1.00;;;;;;5086596;28;20509;-81
2022/08/10 02:39:21;;;;;;;7.03;5.00;;;17.60;1.00;;;;;;5090362;28;20502;-82
2022/08/10 02:41:58;;;;;;;4.70;4.30;;;17.50;1.00;;;;;;5085418;27;21491;-81
2022/08/10 02:44:29;;;;;;;5.13;4.63;;;17.50;1.00;;;;;;5085104;28;20469;-83
2022/08/10 02:47:03;;;;;;;5.87;4.30;;;17.50;1.00;;;;;;5089137;28;20437;-81
2022/08/10 02:49:40;;;;;;;8.40;4.73;;;17.50;1.00;;;;;;5084925;27;20483;-83
2022/08/10 02:52:19;;;;;;;10.87;6.17;;;17.50;1.00;;;;;;5085575;28;20429;-83
2022/08/10 02:55:00;;;;;;;9.40;5.90;;;17.50;1.00;;;;;;5085692;28;20552;-81
2022/08/10 02:57:33;;;;;;;13.13;6.83;;;17.40;1.00;;;;;;5087973;28;20443;-82
2022/08/10 03:00:05;;;;;;;6.13;4.80;;;17.40;1.00;;;;;;5090582;28;20446;-83
2022/08/10 03:02:40;;;;;;;9.37;5.13;;;17.40;1.00;;;;;;5086659;28;21149;-79
2022/08/10 03:05:10;;;;;;;6.00;5.07;;;17.30;1.00;;;;;;5085641;28;20484;-83
2022/08/10 03:07:47;;;;;;;6.00;5.50;;;17.30;1.00;;;;;;5089627;27;20543;-82
2022/08/10 03:10:20;;;;;;;6.07;5.17;;;17.30;1.00;;;;;;5088690;27;21009;-82
2022/08/10 03:12:50;;;;;;;7.63;5.27;;;17.20;1.00;;;;;;5086499;27;20997;-82
2022/08/10 03:15:22;;;;;;;7.30;4.60;;;17.20;1.00;;;;;;5086911;28;20465;-83
2022/08/10 03:17:53;;;;;;;6.87;5.10;;;17.20;1.00;;;;;;5085653;28;20411;-83
2022/08/10 03:20:21;;;;;;;9.80;6.00;;;17.20;1.00;;;;;;5091795;27;20431;-82
2022/08/10 03:22:49;;;;;;;9.50;5.93;;;17.10;1.00;;;;;;5088235;27;20446;-83
2022/08/10 03:25:24;;;;;;;6.33;5.83;;;17.10;1.00;;;;;;5086819;28;20448;-83
2022/08/10 03:27:51;;;;;;;9.87;5.70;;;17.10;1.00;;;;;;5084526;28;20451;-82
2022/08/10 03:30:21;;;;;;;6.43;5.80;;;17.10;1.00;;;;;;5088204;28;20454;-82
2022/08/10 03:32:50;;;;;;;8.83;5.73;;;17.10;1.00;;;;;;5089828;28;20497;-81
2022/08/10 03:35:22;;;;;;;8.40;5.97;;;17.10;1.00;;;;;;5087212;28;20462;-81
2022/08/10 03:37:49;;;;;;;9.43;6.47;;;17.10;1.00;;;;;;5090533;28;20478;-81
2022/08/10 03:40:21;;;;;;;8.23;5.60;;;17.10;1.00;;;;;;5086488;28;20572;-81
2022/08/10 03:42:50;;;;;;;8.30;5.43;;;17.00;1.00;;;;;;5086586;27;20454;-81
2022/08/10 03:45:21;;;;;;;7.73;6.30;;;17.00;1.00;;;;;;5088470;28;20472;-81
2022/08/10 03:48:03;;;;;;;9.27;8.30;;;17.00;1.00;;;;;;5089406;28;20447;-82
2022/08/10 03:50:31;;;;;;;8.67;6.33;;;17.00;1.00;;;;;;5092526;28;20910;-79
2022/08/10 03:53:01;;;;;;;38.93;8.30;;;17.00;1.00;;;;;;5093113;27;20423;-79
2022/08/10 03:55:29;;;;;;;8.03;6.07;;;17.10;1.00;;;;;;5090136;27;21288;-81
2022/08/10 03:58:01;;;;;;;9.17;6.20;;;17.00;1.00;;;;;;5094875;28;20415;-81
2022/08/10 04:00:33;;;;;;;6.30;5.70;;;17.10;1.00;;;;;;5088559;28;20467;-81
2022/08/10 04:03:04;;;;;;;7.70;6.60;;;17.10;1.00;;;;;;5086914;28;20418;-81
2022/08/10 04:05:31;;;;;;;9.27;6.77;;;17.10;1.00;;;;;;5047315;28;20461;-78
2022/08/10 04:08:01;;;;;;;9.10;6.73;;;17.10;1.00;;;;;;5048729;28;20421;-80
2022/08/10 04:10:29;;;;;;;8.33;5.80;;;17.10;1.00;;;;;;5049028;28;20432;-81
2022/08/10 04:13:01;;;;;;;7.80;6.60;;;17.10;1.00;;;;;;5049546;28;20412;-82
2022/08/10 04:15:27;;;;;;;10.13;7.57;;;17.10;1.00;;;;;;5050317;28;20547;-81
2022/08/10 04:17:55;;;;;;;10.50;6.50;;;17.10;1.00;;;;;;5050533;28;20936;-82
2022/08/10 04:20:31;;;;;;;12.80;7.97;;;17.10;1.00;;;;;;5047960;28;20488;-82
2022/08/10 04:23:05;;;;;;;9.70;6.57;;;17.10;1.00;;;;;;5051627;28;20428;-82
2022/08/10 04:25:32;;;;;;;8.77;6.97;;;17.10;1.00;;;;;;5048137;28;20476;-83
2022/08/10 04:28:02;;;;;;;10.47;7.00;;;17.10;1.00;;;;;;5048543;28;20435;-83
2022/08/10 04:30:31;;;;;;;10.50;8.20;;;17.20;1.00;;;;;;5048176;28;20491;-80
2022/08/10 04:33:02;;;;;;;12.30;7.67;;;17.20;1.00;;;;;;5048417;28;20432;-82
2022/08/10 04:35:32;;;;;;;12.00;7.23;;;17.20;1.00;;;;;;5048878;28;20491;-80
2022/08/10 04:38:03;;;;;;;22.27;17.47;;;17.20;1.00;;;;;;5048570;28;20447;-83
2022/08/10 04:40:30;;;;;;;10.20;6.70;;;17.20;1.00;;;;;;5044337;28;20484;-82
2022/08/10 04:43:02;;;;;;;19.13;8.40;;;17.30;1.00;;;;;;5047597;28;20437;-82
2022/08/10 04:45:29;;;;;;;14.83;7.30;;;17.30;1.00;;;;;;5047119;28;20515;-82
2022/08/10 04:48:00;;;;;;;9.97;7.93;;;17.30;1.00;;;;;;5039830;28;20456;-82
2022/08/10 04:50:32;;;;;;;9.40;7.00;;;17.40;1.00;;;;;;5047778;28;20437;-82
2022/08/10 04:53:01;;;;;;;12.17;7.80;;;17.40;1.00;;;;;;5050441;28;20453;-81
2022/08/10 04:55:31;;;;;;;12.23;7.30;;;17.40;1.00;;;;;;5047888;28;20501;-81
2022/08/10 04:58:01;;;;;;;9.40;6.73;;;17.40;1.00;;;;;;5045514;28;20488;-82
2022/08/10 05:00:28;;;;;;;16.27;8.33;;;17.50;1.00;;;;;;5043869;28;20920;-83
2022/08/10 05:02:55;;;;;;;9.27;6.70;;;17.50;1.00;;;;;;5049875;28;20935;-83
2022/08/10 05:05:22;;;;;;;13.10;6.77;;;17.50;1.00;;;;;;5086393;28;20828;-83
2022/08/10 05:07:50;;;;;;;8.07;6.90;;;17.60;1.00;;;;;;5090286;28;20455;-81
2022/08/10 05:10:26;;;;;;;8.17;6.03;;;17.60;1.00;;;;;;5090718;28;20418;-83
2022/08/10 05:12:53;;;;;;;9.03;7.23;;;17.60;1.00;;;;;;5087081;27;20769;-82
2022/08/10 05:15:23;;;;;;;9.40;6.40;;;17.70;1.00;;;;;;5085391;27;20404;-83
2022/08/10 05:17:50;;;;;;;6.50;5.73;;;17.70;1.00;;;;;;5081299;28;20415;-82
2022/08/10 05:20:21;;;;;;;14.07;7.63;;;17.80;1.00;;;;;;5082395;28;20420;-81
2022/08/10 05:22:49;;;;;;;42.67;13.90;;;17.80;1.00;;;;;;5089156;28;20434;-83
2022/08/10 05:25:20;;;;;;;42.20;11.20;;;17.90;1.00;;;;;;5087146;28;20426;-81
2022/08/10 05:27:47;;;;;;;36.73;8.97;;;17.90;1.00;;;;;;5080376;28;20455;-82
2022/08/10 05:30:21;;;;;;;11.57;7.57;;;18.00;1.00;;;;;;5090515;28;21168;-82
2022/08/10 05:32:49;;;;;;;13.03;7.60;;;18.00;1.00;;;;;;5089096;28;20489;-82
2022/08/10 05:35:22;;;;;;;11.70;8.77;;;18.10;1.00;;;;;;5086923;28;20517;-81
2022/08/10 05:37:51;;;;;;;21.03;16.10;;;18.20;1.00;;;;;;5084575;27;21035;-81
2022/08/10 05:40:21;;;;;;;14.67;8.40;;;18.30;1.00;;;;;;5090835;28;20451;-81
2022/08/10 05:42:51;;;;;;;15.77;10.03;;;18.30;1.00;;;;;;5087283;27;20411;-81
2022/08/10 05:45:21;;;;;;;10.03;6.70;;;18.40;1.00;;;;;;5085761;27;20945;-82
2022/08/10 05:47:52;;;;;;;11.80;7.23;;;18.50;1.00;;;;;;5089060;28;20426;-80
2022/08/10 05:50:31;;;;;;;10.60;7.13;;;18.60;1.00;;;;;;5086715;27;20470;-85
2022/08/10 05:53:01;;;;;;;10.07;6.90;;;18.70;1.00;;;;;;5085597;28;20424;-80
2022/08/10 05:55:33;;;;;;;9.40;7.50;;;18.80;1.00;;;;;;5086580;27;20476;-78
2022/08/10 05:58:03;;;;;;;8.50;6.27;;;18.90;1.00;;;;;;5090734;27;20438;-79
2022/08/10 06:00:33;;;;;;;10.63;5.93;;;19.00;1.00;;;;;;5083683;28;20462;-81
2022/08/10 06:03:05;;;;;;;8.73;6.77;;;19.10;1.00;;;;;;5074129;28;20426;-81
2022/08/10 06:05:42;;;;;;;8.80;6.97;;;19.20;1.00;;;;;;5040612;28;20955;-82
2022/08/10 06:08:20;;;;;;;10.07;6.20;;;19.30;1.00;;;;;;5041978;28;20451;-83
2022/08/10 06:10:48;;;;;;;8.10;5.60;;;19.30;1.00;;;;;;5050121;28;20483;-82
2022/08/10 06:16:04;;;;;;;9.80;6.73;;;19.50;1.00;;;;;;5059591;28;20444;-79
2022/08/10 06:18:40;;;;;;;7.23;6.00;;;19.50;1.00;;;;;;5051587;28;20409;-78
2022/08/10 06:21:12;;;;;;;8.90;5.80;;;19.60;1.00;;;;;;5053539;28;20467;-84
2022/08/10 06:23:44;;;;;;;8.57;6.60;;;19.60;1.00;;;;;;5047445;28;20432;-83
2022/08/10 06:26:11;;;;;;;8.23;6.43;;;19.70;1.00;;;;;;5056957;28;20497;-82
2022/08/10 06:28:42;;;;;;;10.20;6.13;;;19.80;1.00;;;;;;5048853;28;20464;-82
2022/08/10 06:31:13;;;;;;;9.33;5.97;;;19.80;1.00;;;;;;5055631;28;20452;-81
2022/08/10 06:33:44;;;;;;;10.60;6.87;;;19.90;1.00;;;;;;5053748;28;20510;-80
2022/08/10 06:36:12;;;;;;;6.83;6.13;;;20.00;1.00;;;;;;5046497;28;20468;-82
2022/08/10 06:38:45;;;;;;;8.20;6.00;;;20.10;1.00;;;;;;5050167;28;20443;-81
2022/08/10 06:41:21;;;;;;;5.93;5.43;;;20.20;1.00;;;;;;5051023;28;20512;-82
2022/08/10 06:44:00;;;;;;;10.37;7.67;;;20.20;1.00;;;;;;5047378;28;20560;-80
2022/08/10 06:46:30;;;;;;;9.13;6.10;;;20.30;1.00;;;;;;5045926;28;20460;-80
2022/08/10 06:49:02;;;;;;;6.03;5.40;;;20.40;1.00;;;;;;5049947;28;20413;-81
2022/08/10 06:51:33;;;;;;;12.90;7.13;;;20.50;1.00;;;;;;5049620;28;20500;-81
2022/08/10 06:54:24;;;;;;;9.33;5.23;;;20.60;1.00;;;;;;5053013;28;20435;-79
2022/08/10 06:56:58;;;;;;;9.87;5.67;;;20.70;1.00;;;;;;5047316;28;20965;-82
2022/08/10 06:59:43;;;;;;;15.83;6.13;;;20.80;1.00;;;;;;5050032;28;20461;-82
2022/08/10 07:02:14;;;;;;;4.90;4.50;;;20.80;1.00;;;;;;5050424;28;20536;-81
2022/08/10 07:04:45;;;;;;;7.63;5.90;;;21.00;1.00;;;;;;5060345;28;20457;-81
2022/08/10 07:07:22;;;;;;;10.23;6.10;;;21.10;1.00;;;;;;5091214;27;20473;-81
2022/08/10 07:09:51;;;;;;;5.90;5.27;;;21.20;1.00;;;;;;5089255;28;20482;-79
2022/08/10 07:12:24;;;;;;;6.13;5.53;;;21.40;1.00;;;;;;5078926;28;20477;-81
2022/08/10 07:14:52;;;;;;;6.47;5.20;;;21.50;1.00;;;;;;5089908;27;20499;-78
2022/08/10 07:17:23;;;;;;;6.03;5.43;;;21.60;1.00;;;;;;5088030;28;20431;-80
2022/08/10 07:19:54;;;;;;;6.93;6.00;;;21.80;1.00;;;;;;5090038;28;20496;-81
2022/08/10 07:22:24;;;;;;;6.70;6.00;;;21.90;1.00;;;;;;5093646;28;20449;-81
2022/08/10 07:25:00;;;;;;;12.30;5.90;;;22.00;1.00;;;;;;5090621;28;20545;-80
2022/08/10 07:27:28;;;;;;;8.70;5.37;;;22.20;1.00;;;;;;5088405;28;20482;-80
2022/08/10 07:30:01;;;;;;;5.40;4.90;;;22.30;1.00;;;;;;5090564;28;20517;-79
2022/08/10 07:32:33;;;;;;;9.70;5.47;;;22.40;1.00;;;;;;5104071;27;20565;-82
2022/08/10 07:35:02;;;;;;;5.83;5.23;;;22.40;1.00;;;;;;5087452;27;20453;-82
2022/08/10 07:37:31;;;;;;;6.10;4.70;;;22.50;1.00;;;;;;5084772;28;20970;-82
2022/08/10 07:40:06;;;;;;;7.67;5.27;;;22.60;1.00;;;;;;5086316;28;20433;-80
2022/08/10 07:42:42;;;;;;;11.30;4.97;;;22.80;1.00;;;;;;5088627;27;20470;-80
2022/08/10 07:45:12;;;;;;;9.17;5.33;;;22.80;1.00;;;;;;5088077;28;20459;-79
2022/08/10 07:47:42;;;;;;;7.10;4.67;;;22.90;1.00;;;;;;5081074;27;20553;-79
2022/08/10 07:50:12;;;;;;;7.03;5.10;;;23.00;1.00;;;;;;5080891;28;20454;-80
2022/08/10 07:52:43;;;;;;;5.53;4.27;;;23.10;1.00;;;;;;5087938;28;20469;-80
2022/08/10 07:55:21;;;;;;;10.00;5.43;;;23.20;1.00;;;;;;5088259;28;20454;-79
2022/08/10 07:57:52;;;;;;;5.23;4.60;;;23.20;1.00;;;;;;5085128;28;21312;-80
2022/08/10 08:00:23;;;;;;;6.30;4.30;;;23.10;1.00;;;;;;5089554;28;20442;-79
2022/08/10 08:02:53;;;;;;;6.20;4.67;;;23.10;1.00;;;;;;5087846;27;20459;-80
2022/08/10 08:05:24;;;;;;;7.63;5.20;;;23.10;1.00;;;;;;5088971;28;20437;-80
2022/08/10 08:07:52;;;;;;;8.77;5.37;;;23.10;1.00;;;;;;5087794;28;20970;-82
2022/08/10 08:10:26;;;;;;;9.67;5.50;;;23.10;1.00;;;;;;5089607;28;20438;-81
2022/08/10 08:12:56;;;;;;;5.17;4.70;;;23.20;1.00;;;;;;5084877;27;20561;-79
2022/08/10 08:15:25;;;;;;;5.23;4.73;;;23.30;1.00;;;;;;5084586;27;20474;-79
2022/08/10 08:17:54;;;;;;;9.63;4.90;;;23.40;1.00;;;;;;5081670;28;20441;-81
2022/08/10 08:20:23;;;;;;;5.50;5.00;;;23.60;1.00;;;;;;5088065;28;20506;-80
2022/08/10 08:22:53;;;;;;;5.33;4.77;;;23.70;1.00;;;;;;5094707;28;20426;-80
2022/08/10 08:25:22;;;;;;;5.97;5.37;;;23.90;1.00;;;;;;5087704;28;20455;-82
2022/08/10 08:27:54;;;;;;;9.00;4.60;;;24.00;1.00;;;;;;5085691;28;20581;-81
2022/08/10 08:30:23;;;;;;;5.17;4.47;;;24.20;1.00;;;;;;5087374;27;20474;-80
2022/08/10 08:32:52;;;;;;;5.67;4.40;;;24.30;1.00;;;;;;5084617;28;20463;-82
2022/08/10 08:35:22;;;;;;;5.50;4.40;;;24.40;1.00;;;;;;5080920;28;20460;-81
2022/08/10 08:37:53;;;;;;;5.43;4.40;;;24.50;1.00;;;;;;5088900;27;20561;-80
2022/08/10 08:40:24;;;;;;;4.27;3.80;;;24.70;1.00;;;;;;5085060;28;20454;-83
2022/08/10 08:43:11;;;;;;;5.80;4.13;;;24.70;1.00;;;;;;5071515;28;21313;-81
2022/08/10 08:46:02;;;;;;;5.43;3.57;;;24.80;1.00;;;;;;5079669;27;20567;-82
2022/08/10 08:48:56;;;;;;;5.03;3.90;;;24.90;1.00;;;;;;5077463;28;20434;-82
2022/08/10 08:51:33;;;;;;;5.03;3.60;;;25.00;1.00;;;;;;5085679;28;20440;-82
2022/08/10 08:54:08;;;;;;;4.87;3.40;;;25.10;1.00;;;;;;5088423;28;21367;-82
2022/08/10 08:56:41;;;;;;;3.43;2.80;;;25.30;1.00;;;;;;5088120;27;20474;-80
2022/08/10 08:59:29;;;;;;;4.93;2.90;;;25.40;1.00;;;;;;5089636;28;20454;-80
2022/08/10 09:02:23;;;;;;;8.53;3.80;;;25.50;1.00;;;;;;5084888;27;20543;-82
2022/08/10 09:05:12;;;;;;;4.30;2.90;;;25.70;1.00;;;;;;5086932;28;20465;-82
2022/08/10 09:08:02;;;;;;;7.37;3.60;;;25.80;1.00;;;;;;5085827;28;21205;-80
2022/08/10 09:10:43;;;;;;;7.07;3.43;;;25.90;1.00;;;;;;5090381;28;20453;-83
2022/08/10 09:13:25;;;;;;;4.17;2.73;;;26.10;1.00;;;;;;5084364;28;20528;-82
2022/08/10 09:16:07;;;;;;;4.77;2.97;;;26.10;1.00;;;;;;5087706;28;20505;-80
2022/08/10 09:18:44;;;;;;;5.40;3.10;;;26.30;1.00;;;;;;5081490;27;20596;-80
2022/08/10 09:21:19;;;;;;;6.17;3.03;;;26.40;1.00;;;;;;5085637;28;20475;-80
2022/08/10 09:23:52;;;;;;;2.93;2.60;;;26.50;1.00;;;;;;5079962;27;20442;-83
2022/08/10 09:26:33;;;;;;;8.63;3.23;;;26.70;1.00;;;;;;5085218;28;20434;-83
2022/08/10 09:29:03;;;;;;;4.67;2.77;;;26.90;1.00;;;;;;5087054;28;20418;-83
2022/08/10 09:31:44;;;;;;;4.10;2.43;;;27.00;1.00;;;;;;5085629;28;20479;-82
2022/08/10 09:34:27;;;;;;;3.33;2.27;;;27.30;1.00;;;;;;5085646;28;20453;-84
2022/08/10 09:37:07;;;;;;;5.60;2.23;;;27.70;1.00;;;;;;5082397;28;20903;-81
2022/08/10 09:39:42;;;;;;;4.63;2.50;;;28.40;1.00;;;;;;5081493;28;20450;-82
2022/08/10 09:42:18;;;;;;;3.73;2.53;;;29.90;1.00;;;;;;5088984;28;20489;-82
2022/08/10 09:44:54;;;;;;;3.20;2.40;;;31.50;1.00;;;;;;5083070;28;20858;-82
2022/08/10 09:47:42;;;;;;;5.13;2.33;;;32.80;1.00;;;;;;5084666;27;20557;-82
2022/08/10 09:50:22;;;;;;;3.20;2.20;;;33.70;1.00;;;;;;5078321;27;20447;-83
2022/08/10 09:53:00;;;;;;;2.03;1.83;;;34.50;1.00;;;;;;5085272;28;20478;-83
2022/08/10 09:55:39;;;;;;;2.60;2.00;;;35.00;1.00;;;;;;5087201;28;20481;-81
2022/08/10 09:58:27;;;;;;;2.90;2.70;;;35.80;1.00;;;;;;5085994;27;20519;-83
2022/08/10 10:01:19;;;;;;;2.80;2.20;;;36.40;1.00;;;;;;5088474;28;20491;-87
2022/08/10 10:04:13;;;;;;;3.70;2.47;;;37.10;1.00;;;;;;5084978;28;20419;-80
2022/08/10 10:06:53;;;;;;;5.87;5.27;;;37.70;1.00;;;;;;5093188;27;20509;-81
2022/08/10 10:09:34;;;;;;;3.53;2.70;;;38.40;1.00;;;;;;5084056;28;20485;-81
2022/08/10 10:12:19;;;;;;;2.70;2.50;;;39.10;1.00;;;;;;5089069;28;20457;-82
2022/08/10 10:18:13;;;;;;;3.83;2.00;;;38.90;1.00;;;;;;5087322;28;21459;-81
2022/08/10 10:21:03;;;;;;;3.60;2.23;;;39.20;1.00;;;;;;5092636;27;20442;-81
2022/08/10 10:23:50;;;;;;;5.80;2.57;;;39.20;1.00;;;;;;5088815;27;20470;-80
2022/08/10 10:26:23;;;;;;;2.87;1.70;;;39.50;1.00;;;;;;5092366;28;20463;-82
2022/08/10 10:29:03;;;;;;;3.23;2.00;;;39.50;1.00;;;;;;5085779;28;20412;-83
2022/08/10 10:31:39;;;;;;;3.90;2.20;;;39.70;1.00;;;;;;5085896;28;20575;-80
2022/08/10 10:34:17;;;;;;;1.90;1.80;;;40.00;1.00;;;;;;5081062;28;20450;-82
2022/08/10 10:36:46;;;;;;;3.60;2.10;;;40.10;1.00;;;;;;5086108;28;20501;-82
2022/08/10 10:39:16;;;;;;;3.30;1.63;;;40.10;1.00;;;;;;5087185;28;20419;-82
2022/08/10 10:41:54;;;;;;;5.00;2.23;;;40.10;1.00;;;;;;5088015;28;20536;-79
2022/08/10 10:44:41;;;;;;;4.10;2.63;;;40.50;1.00;;;;;;5087285;28;20930;-81
2022/08/10 10:47:36;;;;;;;1.60;1.50;;;40.90;1.00;;;;;;5085756;28;20431;-81
2022/08/10 10:50:13;;;;;;;1.77;1.60;;;41.30;1.00;;;;;;5088214;28;20980;-81
2022/08/10 10:52:58;;;;;;;3.37;1.93;;;41.70;1.00;;;;;;5088406;28;20939;-80
2022/08/10 10:55:37;;;;;;;1.73;1.50;;;41.90;1.00;;;;;;5084544;28;20462;-82
2022/08/10 10:58:13;;;;;;;5.10;2.30;;;41.90;1.00;;;;;;5091573;27;20497;-83
2022/08/10 11:00:52;;;;;;;3.27;2.00;;;42.00;1.00;;;;;;5083393;28;20536;-82
2022/08/10 11:03:36;;;;;;;2.47;1.90;;;42.20;1.00;;;;;;5088468;28;20478;-82
2022/08/10 11:06:18;;;;;;;2.90;2.70;;;42.30;1.00;;;;;;5082380;27;20453;-84
2022/08/10 11:08:53;;;;;;;2.73;2.50;;;42.60;1.00;;;;;;5088420;28;20839;-82
2022/08/10 11:11:25;;;;;;;9.97;2.13;;;42.60;1.00;;;;;;5089698;28;20468;-82
2022/08/10 11:14:04;;;;;;;2.43;2.17;;;42.50;1.00;;;;;;5088447;27;20446;-83
2022/08/10 11:16:42;;;;;;;3.27;2.53;;;42.30;1.00;;;;;;5089625;27;20455;-82
2022/08/10 11:19:18;;;;;;;2.93;1.70;;;42.90;1.00;;;;;;5092801;27;20462;-81
2022/08/10 11:22:01;;;;;;;3.13;1.77;;;43.20;1.00;;;;;;5090173;28;20431;-81
2022/08/10 11:24:43;;;;;;;4.87;1.80;;;43.20;1.00;;;;;;5088917;27;20577;-82
2022/08/10 11:27:34;;;;;;;2.77;1.53;;;43.50;1.00;;;;;;5094051;27;20418;-84
2022/08/10 11:30:06;;;;;;;2.83;1.70;;;43.80;1.00;;;;;;5090736;27;20442;-82
2022/08/10 11:32:42;;;;;;;5.20;3.50;;;44.20;1.00;;;;;;5089727;27;20470;-82
2022/08/10 11:35:22;;;;;;;3.43;2.03;;;44.50;1.00;;;;;;5084671;28;20502;-82
2022/08/10 11:38:00;;;;;;;2.40;1.63;;;44.40;1.00;;;;;;5090350;27;20479;-81
2022/08/10 11:40:37;;;;;;;2.73;1.73;;;44.30;1.00;;;;;;5089725;27;20477;-81
2022/08/10 11:43:13;;;;;;;3.47;2.40;;;44.20;1.00;;;;;;5091753;28;20473;-81
2022/08/10 11:45:43;;;;;;;2.80;1.60;;;44.60;1.00;;;;;;5091040;28;21248;-82
2022/08/10 11:48:23;;;;;;;2.90;2.03;;;44.50;1.00;;;;;;5084872;27;20443;-81
2022/08/10 11:50:56;;;;;;;2.07;1.77;;;44.40;1.00;;;;;;5086980;28;20500;-81
2022/08/10 11:53:31;;;;;;;2.97;2.20;;;44.50;1.00;;;;;;5085357;28;20433;-82
2022/08/10 11:56:01;;;;;;;2.10;1.73;;;44.40;1.00;;;;;;5081207;28;20502;-82
2022/08/10 12:01:20;;;;;;;3.23;2.63;;;44.20;1.00;;;;;;5083250;28;20462;-81
2022/08/10 12:03:48;;;;;;;3.60;1.93;;;44.40;1.00;;;;;;5086034;27;20414;-81
2022/08/10 12:06:24;;;;;;;3.00;2.40;;;44.20;1.00;;;;;;5090459;28;20859;-83
2022/08/10 12:08:53;;;;;;;3.60;2.50;;;44.40;1.00;;;;;;5093473;28;20490;-83
2022/08/10 12:11:28;;;;;;;5.17;2.30;;;44.60;1.00;;;;;;5090755;28;20435;-81
2022/08/10 12:14:00;;;;;;;3.90;3.50;;;44.80;1.00;;;;;;5090213;28;20443;-81
2022/08/10 12:16:33;;;;;;;3.70;2.00;;;44.70;1.00;;;;;;5091085;27;20470;-80
2022/08/10 12:19:07;;;;;;;5.50;2.60;;;44.90;1.00;;;;;;5093255;27;20856;-81
2022/08/10 12:21:41;;;;;;;2.43;1.77;;;45.50;1.00;;;;;;5093956;27;20433;-83
2022/08/10 12:24:18;;;;;;;1.97;1.87;;;45.90;1.00;;;;;;5086209;27;20492;-83
2022/08/10 12:26:56;;;;;;;2.80;2.20;;;46.10;1.00;;;;;;5090652;27;20498;-80
2022/08/10 12:29:34;;;;;;;5.33;1.90;;;46.00;1.00;;;;;;5087013;28;20459;-82
2022/08/10 12:32:06;;;;;;;2.10;1.90;;;45.80;1.00;;;;;;5087360;28;20455;-81
2022/08/10 12:34:43;;;;;;;3.10;2.17;;;45.80;1.00;;;;;;5087761;28;20450;-82
2022/08/10 12:37:20;;;;;;;6.67;2.47;;;46.00;1.00;;;;;;5086811;28;20431;-82
2022/08/10 12:40:02;;;;;;;11.40;2.20;;;46.10;1.00;;;;;;5087048;28;20505;-84
2022/08/10 12:42:41;;;;;;;3.30;2.07;;;46.20;1.00;;;;;;5085932;27;20473;-81
2022/08/10 12:45:17;;;;;;;2.70;1.73;;;45.80;1.00;;;;;;5089980;28;20462;-79
2022/08/10 12:47:58;;;;;;;1.70;1.47;;;45.10;1.00;;;;;;5085225;27;20466;-83
2022/08/10 12:50:39;;;;;;;2.27;2.00;;;44.80;1.00;;;;;;5085347;27;20466;-79
2022/08/10 12:53:24;;;;;;;1.70;1.60;;;44.60;1.00;;;;;;5079654;28;20917;-82
2022/08/10 12:55:56;;;;;;;1.57;1.47;;;44.00;1.00;;;;;;5083199;28;20499;-82
2022/08/10 12:58:26;;;;;;;3.10;2.00;;;44.10;1.00;;;;;;5086995;28;20470;-83
2022/08/10 13:00:56;;;;;;;2.40;1.73;;;44.00;1.00;;;;;;5085882;28;20431;-84
2022/08/10 13:03:25;;;;;;;2.33;2.13;;;44.50;1.00;;;;;;5082965;28;20414;-81
2022/08/10 13:05:54;;;;;;;1.80;1.70;;;44.70;1.00;;;;;;5051562;28;20513;-81
2022/08/10 13:11:18;;;;;;;4.07;2.47;;;44.60;1.00;;;;;;5056163;28;21251;-78
2022/08/10 13:13:55;;;;;;;3.73;2.40;;;44.30;1.00;;;;;;5050669;28;20448;-79
2022/08/10 13:16:25;;;;;;;2.50;1.80;;;44.40;1.00;;;;;;5050684;28;20412;-80
2022/08/10 13:18:59;;;;;;;3.77;1.73;;;44.50;1.00;;;;;;5054832;28;20455;-81
2022/08/10 13:21:35;;;;;;;2.23;1.77;;;44.90;1.00;;;;;;5048518;28;20965;-81
2022/08/10 13:24:12;;;;;;;3.57;1.53;;;44.90;1.00;;;;;;5052029;28;20456;-79
2022/08/10 13:26:47;;;;;;;2.60;1.90;;;44.70;1.00;;;;;;5055161;28;20455;-82
2022/08/10 13:29:18;;;;;;;3.53;2.07;;;45.10;1.00;;;;;;5050605;28;20497;-80
2022/08/10 13:31:51;;;;;;;3.33;1.73;;;44.90;1.00;;;;;;5053858;28;20464;-82
2022/08/10 13:34:22;;;;;;;2.40;1.73;;;45.20;1.00;;;;;;5054350;28;21017;-79
2022/08/10 13:36:52;;;;;;;2.00;1.70;;;45.30;1.00;;;;;;5041643;28;20456;-84
2022/08/10 13:39:25;;;;;;;2.23;1.87;;;45.70;1.00;;;;;;5053629;28;20475;-83
2022/08/10 13:42:01;;;;;;;2.00;1.77;;;45.30;1.00;;;;;;5050880;28;20445;-84